No.2yushinmaru — JPPV — position and weather

sailwx.info

Track history (hours):
 
Tides and Currents Weather Stations Pressure Air Temp Water Temp Dewpoint Dewpoint Depression Visibility Wind Speed Wind Dir Waves Ship Positions

No.2yushinmaru

Last reported at 2018-May-12 03:52 UTC. Time now 2018-Aug-14 13:47 UTC.
Position N 41°31' E 139°53'.
Warning: this ship's position is months out of date.

Length 70 m; draft 5.5 m.

Type: Fishing. MMSI: 432364000.

Date/timePositionNaut miles runAvg speedWind from/ knotsBaromVisibWave heightAir tempDewpointWater temp
2018-May-12 03:52N 41°31' E 139°53'24 8.5
2018-May-12 01:05N 41°25' E 140°24'2 9.9
2018-May-12 00:55N 41°26' E 140°26'4 9.6
2018-May-12 00:29N 41°27' E 140°31'4 9.2
2018-May-12 00:00N 41°29' E 140°36'5 9.1
2018-May-11 23:30N 41°32' E 140°41'510.7
2018-May-11 23:00N 41°34' E 140°47'510.4
2018-May-11 22:30N 41°36' E 140°54'510.2
2018-May-11 21:59N 41°36' E 141°01'510.6
2018-May-11 21:30N 41°34' E 141°07'510.1
2018-May-11 21:00N 41°33' E 141°14'611.0
2018-May-11 20:29N 41°32' E 141°21'611.1
2018-May-11 19:58N 41°30' E 141°29'510.8
2018-May-11 19:30N 41°27' E 141°34'  
Track history (hours):
 
Tides and Currents Weather Stations Pressure Air Temp Water Temp Dewpoint Dewpoint Depression Visibility Wind Speed Wind Dir Waves Ship Positions

No.2yushinmaru

Last reported at 2018-May-12 03:52 UTC. Time now 2018-Aug-14 13:47 UTC.
Position N 41°31' E 139°53'.
Warning: this ship's position is months out of date.

Length 70 m; draft 5.5 m.

Type: Fishing. MMSI: 432364000.

Date/timePositionNaut miles runAvg speedWind from/ knotsBaromVisibWave heightAir tempDewpointWater temp
2018-May-12 03:52N 41°31' E 139°53'24 8.5
2018-May-12 01:05N 41°25' E 140°24'2 9.9
2018-May-12 00:55N 41°26' E 140°26'4 9.6
2018-May-12 00:29N 41°27' E 140°31'4 9.2
2018-May-12 00:00N 41°29' E 140°36'5 9.1
2018-May-11 23:30N 41°32' E 140°41'510.7
2018-May-11 23:00N 41°34' E 140°47'510.4
2018-May-11 22:30N 41°36' E 140°54'510.2
2018-May-11 21:59N 41°36' E 141°01'510.6
2018-May-11 21:30N 41°34' E 141°07'510.1
2018-May-11 21:00N 41°33' E 141°14'611.0
2018-May-11 20:29N 41°32' E 141°21'611.1
2018-May-11 19:58N 41°30' E 141°29'510.8
2018-May-11 19:30N 41°27' E 141°34'  

Dump ship's entire track history